Time;durP1;ratioP1;P1;durP2;ratioP2;P2;SDS_P1;SDS_P2;PMS_P1;PMS_P2;Temp;Humidity;BMP_temperature;BMP_pressure;BME280_temperature;BME280_humidity;BME280_pressure;Samples;Min_cycle;Max_cycle;Signal;HPM_P1;HPM_P2
2021/06/01 00:02:16;;;;;;;42.60;29.53;;;;;;;10.96;65.68;100811.63;129086;1091;24454;-76
2021/06/01 00:04:46;;;;;;;38.78;28.28;;;;;;;10.96;65.87;100809.83;129094;1092;22336;-75
2021/06/01 00:07:17;;;;;;;41.40;29.23;;;;;;;10.93;65.90;100812.79;128959;1095;22327;-76
2021/06/01 00:09:47;;;;;;;39.15;28.73;;;;;;;10.92;65.96;100816.40;128619;1098;22358;-75
2021/06/01 00:12:16;;;;;;;44.68;27.48;;;;;;;10.90;66.02;100812.28;128580;1098;22462;-75
2021/06/01 00:14:46;;;;;;;37.63;27.48;;;;;;;10.88;66.13;100811.60;128659;1098;22426;-75
2021/06/01 00:17:16;;;;;;;39.00;27.38;;;;;;;10.84;66.02;100819.02;128629;1098;22370;-75
2021/06/01 00:19:46;;;;;;;40.78;27.50;;;;;;;10.81;66.74;100809.59;128577;1098;22358;-75
2021/06/01 00:22:16;;;;;;;35.70;27.00;;;;;;;10.79;66.38;100802.80;128573;1098;22342;-75
2021/06/01 00:24:46;;;;;;;39.93;27.28;;;;;;;10.79;66.43;100806.26;128625;1097;22348;-75
2021/06/01 00:27:15;;;;;;;37.20;27.53;;;;;;;10.76;66.19;100814.53;128999;1092;22339;-74
2021/06/01 00:29:45;;;;;;;35.28;25.93;;;;;;;10.72;66.17;100815.80;129036;1092;22343;-74
2021/06/01 00:32:16;;;;;;;38.85;28.00;;;;;;;10.71;66.21;100810.70;129039;1092;22326;-74
2021/06/01 00:34:46;;;;;;;36.53;27.13;;;;;;;10.68;66.38;100819.76;129115;1090;24717;-75
2021/06/01 00:37:16;;;;;;;35.45;25.40;;;;;;;10.66;66.53;100818.25;129443;1090;24964;-75
2021/06/01 00:39:46;;;;;;;44.38;28.25;;;;;;;10.62;66.43;100820.38;129044;1092;24460;-75
2021/06/01 00:42:15;;;;;;;39.70;26.55;;;;;;;10.58;66.56;100814.58;129040;1092;22323;-75
2021/06/01 00:44:47;;;;;;;39.13;27.23;;;;;;;10.55;66.73;100814.06;129059;1094;22326;-75
2021/06/01 00:47:16;;;;;;;41.10;28.83;;;;;;;10.49;66.28;100818.16;128979;1091;22337;-75
2021/06/01 00:49:46;;;;;;;36.00;27.85;;;;;;;10.45;66.67;100808.06;128974;1092;22318;-75
2021/06/01 00:52:16;;;;;;;39.00;27.78;;;;;;;10.42;66.79;100816.30;129432;1092;22331;-74
2021/06/01 00:54:46;;;;;;;38.63;27.70;;;;;;;10.40;67.17;100816.47;128999;1092;22430;-74
2021/06/01 00:57:15;;;;;;;39.15;26.93;;;;;;;10.39;67.93;100813.97;129084;1093;23113;-74
2021/06/01 00:59:45;;;;;;;41.00;30.03;;;;;;;10.38;67.11;100813.14;129115;1092;22339;-73
2021/06/01 01:02:15;;;;;;;35.73;26.85;;;;;;;10.36;67.46;100808.02;129069;1092;23096;-74
2021/06/01 01:04:46;;;;;;;40.47;28.80;;;;;;;10.36;67.47;100812.45;129106;1092;22341;-75
2021/06/01 01:08:21;;;;;;;41.28;28.85;;;;;;;10.35;67.58;100808.16;129017;1091;24293;-75
2021/06/01 01:10:16;;;;;;;38.93;28.50;;;;;;;10.31;67.62;100805.00;128925;1092;22341;-75
2021/06/01 01:13:00;;;;;;;41.90;28.57;;;;;;;10.30;67.71;100808.64;129047;1092;22327;-75
2021/06/01 01:15:33;;;;;;;43.65;30.30;;;;;;;10.29;67.79;100806.96;129076;1093;22338;-75
2021/06/01 01:18:08;;;;;;;44.20;29.55;;;;;;;10.29;67.25;100801.68;129154;1092;22777;-75
2021/06/01 01:21:04;;;;;;;39.03;27.73;;;;;;;10.29;67.76;100795.58;129007;1092;22446;-75
2021/06/01 01:23:37;;;;;;;43.23;28.53;;;;;;;10.24;67.65;100796.02;129107;1092;22430;-75
2021/06/01 01:26:26;;;;;;;38.90;26.65;;;;;;;10.19;67.69;100803.56;128985;1093;22324;-74
2021/06/01 01:29:33;;;;;;;39.33;27.45;;;;;;;10.18;68.05;100801.09;129109;1092;22424;-76
2021/06/01 01:32:08;;;;;;;43.05;27.45;;;;;;;10.15;67.89;100802.22;128635;1098;22439;-75
2021/06/01 01:34:40;;;;;;;41.50;27.78;;;;;;;10.15;67.86;100799.58;128637;1098;22743;-74
2021/06/01 01:37:10;;;;;;;40.23;28.03;;;;;;;10.13;67.92;100796.28;128562;1098;22522;-74
2021/06/01 01:39:46;;;;;;;40.55;28.68;;;;;;;10.14;67.88;100795.29;128625;1098;22341;-76
2021/06/01 01:42:18;;;;;;;39.48;28.20;;;;;;;10.12;67.93;100784.87;128591;1098;22363;-75
2021/06/01 01:44:50;;;;;;;41.53;29.60;;;;;;;10.12;67.78;100787.51;128643;1098;22336;-74
2021/06/01 01:50:07;;;;;;;38.33;27.25;;;;;;;10.06;67.50;100782.02;128715;1095;22692;-75
2021/06/01 01:52:40;;;;;;;37.30;28.10;;;;;;;10.03;67.59;100785.81;128953;1093;24540;-74
2021/06/01 01:55:12;;;;;;;38.30;28.38;;;;;;;10.01;67.81;100782.48;128644;1093;24517;-75
2021/06/01 01:57:47;;;;;;;41.47;27.37;;;;;;;9.99;67.85;100778.34;128664;1093;22364;-75
2021/06/01 02:00:18;;;;;;;35.98;26.68;;;;;;;9.97;68.05;100777.68;128680;1095;22351;-75
2021/06/01 02:02:49;;;;;;;39.10;27.93;;;;;;;9.96;67.96;100778.64;128645;1093;24482;-75
2021/06/01 02:05:19;;;;;;;36.50;27.15;;;;;;;9.93;67.90;100779.80;128661;1097;22343;-76
2021/06/01 02:07:50;;;;;;;35.20;26.68;;;;;;;9.90;68.15;100778.28;128970;1095;22446;-76
2021/06/01 02:10:27;;;;;;;36.88;27.23;;;;;;;9.88;67.99;100777.59;129018;1092;22321;-75
2021/06/01 02:12:57;;;;;;;36.45;26.88;;;;;;;9.88;68.02;100779.41;129100;1093;22321;-75
2021/06/01 02:15:27;;;;;;;41.90;28.43;;;;;;;9.85;68.05;100775.27;129064;1092;24975;-74
2021/06/01 02:17:58;;;;;;;34.30;26.38;;;;;;;9.81;68.04;100778.37;129074;1092;22330;-74
2021/06/01 02:20:29;;;;;;;38.80;27.90;;;;;;;9.75;68.07;100769.24;129080;1092;23049;-74
2021/06/01 02:27:04;;;;;;;38.08;26.35;;;;;;;9.63;68.22;100776.58;128740;1092;22522;-74
2021/06/01 02:30:02;;;;;;;39.13;26.30;;;;;;;9.58;68.54;100770.91;128570;1098;22337;-73
2021/06/01 02:32:45;;;;;;;38.28;27.50;;;;;;;9.50;68.48;100770.02;128552;1095;22336;-74
2021/06/01 02:35:20;;;;;;;36.58;26.10;;;;;;;9.45;68.49;100774.91;128691;1095;22433;-75
2021/06/01 02:37:51;;;;;;;38.05;28.40;;;;;;;9.43;68.72;100764.52;128285;1098;22331;-75
2021/06/01 02:40:22;;;;;;;36.73;26.60;;;;;;;9.43;68.84;100764.52;128576;1098;23279;-75
2021/06/01 02:42:53;;;;;;;;;;;;;;;9.39;68.96;100769.23;128668;1095;24865;-75
2021/06/01 02:45:27;;;;;;;40.63;27.80;;;;;;;9.40;69.36;100775.37;128282;1095;21261;-74
2021/06/01 02:47:57;;;;;;;37.30;27.50;;;;;;;9.48;69.26;100764.06;128578;1098;23264;-75
2021/06/01 02:50:29;;;;;;;44.45;28.35;;;;;;;9.56;69.57;100757.06;128571;1098;22351;-75
2021/06/01 02:53:02;;;;;;;37.20;27.97;;;;;;;9.61;69.28;100762.70;128557;1098;22325;-75
2021/06/01 02:55:32;;;;;;;40.35;30.03;;;;;;;9.63;68.87;100762.56;128323;1098;22336;-75
2021/06/01 02:58:07;;;;;;;39.25;29.13;;;;;;;9.60;68.94;100758.41;128582;1095;24447;-75
2021/06/01 03:00:39;;;;;;;41.45;28.28;;;;;;;9.57;68.81;100771.08;128651;1097;22347;-76
2021/06/01 03:03:14;;;;;;;36.13;25.95;;;;;;;9.55;68.90;100760.66;128725;1095;22344;-74
2021/06/01 03:05:43;;;;;;;37.53;28.45;;;;;;;9.57;69.08;100763.16;128903;1092;23025;-76
2021/06/01 03:08:28;;;;;;;44.80;31.13;;;;;;;9.58;69.28;100764.81;129469;1090;24561;-76
2021/06/01 03:11:02;;;;;;;47.23;35.28;;;;;;;9.58;69.23;100767.45;129098;1092;22336;-75
2021/06/01 03:13:32;;;;;;;39.48;33.40;;;;;;;9.59;69.17;100759.38;129082;1092;22330;-75
2021/06/01 03:16:03;;;;;;;37.25;31.15;;;;;;;9.60;68.74;100768.14;129063;1094;22388;-75
2021/06/01 03:18:34;;;;;;;40.60;30.30;;;;;;;9.56;69.11;100754.42;129120;1092;22320;-75
2021/06/01 03:21:04;;;;;;;40.85;28.23;;;;;;;9.57;69.36;100756.08;129089;1090;24151;-75
2021/06/01 03:23:34;;;;;;;44.83;30.18;;;;;;;9.58;69.34;100756.90;129101;1091;24456;-75
2021/06/01 03:26:04;;;;;;;35.75;28.25;;;;;;;9.59;69.37;100753.27;129118;1090;24482;-76
2021/06/01 03:28:35;;;;;;;38.18;30.08;;;;;;;9.64;69.60;100748.39;129083;1090;24457;-76
2021/06/01 03:31:06;;;;;;;39.65;29.98;;;;;;;9.66;69.59;100749.90;129056;1092;22411;-75
2021/06/01 03:33:36;;;;;;;48.98;29.30;;;;;;;9.63;69.35;100752.02;129120;1092;22324;-74
2021/06/01 03:36:06;;;;;;;43.98;31.53;;;;;;;9.64;69.45;100745.75;129104;1092;22318;-75
2021/06/01 03:38:37;;;;;;;36.98;29.78;;;;;;;9.64;69.90;100743.11;129132;1092;22354;-76
2021/06/01 03:41:07;;;;;;;42.43;30.20;;;;;;;9.60;69.39;100739.13;129110;1092;22427;-75
2021/06/01 03:43:37;;;;;;;35.08;26.68;;;;;;;9.58;69.57;100736.63;129111;1092;22421;-76
2021/06/01 03:46:06;;;;;;;35.45;27.23;;;;;;;9.54;69.53;100730.00;129484;1090;23166;-75
2021/06/01 03:48:39;;;;;;;36.58;28.55;;;;;;;9.49;69.52;100729.61;129105;1092;22322;-75
2021/06/01 03:51:09;;;;;;;38.18;28.40;;;;;;;9.42;69.49;100732.02;129104;1092;22440;-75
2021/06/01 03:53:38;;;;;;;34.03;27.03;;;;;;;9.41;69.95;100732.19;129067;1090;22323;-75
2021/06/01 03:56:08;;;;;;;29.80;24.75;;;;;;;9.41;70.22;100729.55;129105;1092;22323;-76
2021/06/01 03:58:38;;;;;;;35.70;25.25;;;;;;;9.42;70.22;100726.75;129445;1090;22338;-75
2021/06/01 04:01:08;;;;;;;35.40;24.43;;;;;;;9.47;70.68;100726.31;129074;1092;22324;-77
2021/06/01 04:03:41;;;;;;;28.33;23.63;;;;;;;9.53;70.42;100730.14;129035;1092;22354;-75
2021/06/01 04:06:12;;;;;;;35.38;26.90;;;;;;;9.61;70.94;100728.41;129082;1092;22354;-74
2021/06/01 04:08:42;;;;;;;35.50;26.55;;;;;;;9.73;71.00;100728.16;129097;1090;22318;-75
2021/06/01 04:11:11;;;;;;;34.13;26.40;;;;;;;9.87;70.99;100736.37;129436;1092;22336;-75
2021/06/01 04:13:41;;;;;;;36.80;24.68;;;;;;;10.03;70.93;100737.45;129059;1092;22351;-76
2021/06/01 04:16:11;;;;;;;32.08;24.30;;;;;;;10.19;70.73;100731.45;129074;1094;22354;-76
2021/06/01 04:18:41;;;;;;;34.68;25.10;;;;;;;10.31;70.57;100741.63;128993;1093;25005;-74
2021/06/01 04:21:11;;;;;;;32.60;24.10;;;;;;;10.42;69.94;100737.06;128672;1095;22785;-75
2021/06/01 04:23:41;;;;;;;35.48;25.53;;;;;;;10.50;69.53;100740.59;128646;1093;22442;-75
2021/06/01 04:26:11;;;;;;;28.68;23.55;;;;;;;10.58;69.60;100739.78;128565;1098;23107;-75
2021/06/01 04:28:41;;;;;;;36.13;25.15;;;;;;;10.64;69.49;100743.62;128351;1096;22356;-76
2021/06/01 04:31:11;;;;;;;32.78;23.53;;;;;;;10.71;69.12;100734.89;128264;1101;22359;-76
2021/06/01 04:33:40;;;;;;;33.48;25.18;;;;;;;10.79;69.23;100742.84;128591;1098;24196;-76
2021/06/01 04:36:10;;;;;;;35.75;24.13;;;;;;;10.92;69.24;100752.96;128276;1098;22359;-75
2021/06/01 04:38:39;;;;;;;32.13;24.05;;;;;;;11.06;68.84;100755.02;128568;1098;22373;-75
2021/06/01 04:41:09;;;;;;;33.35;26.03;;;;;;;11.25;69.26;100758.34;128564;1095;22350;-75
2021/06/01 04:43:39;;;;;;;32.55;25.33;;;;;;;11.46;69.22;100757.88;128592;1092;23116;-75
2021/06/01 04:46:10;;;;;;;31.98;23.50;;;;;;;11.67;69.02;100760.06;128786;1094;24209;-75
2021/06/01 04:48:40;;;;;;;29.10;22.43;;;;;;;11.91;68.83;100769.85;129068;1094;22341;-74
2021/06/01 04:51:16;;;;;;;32.60;23.68;;;;;;;12.16;68.32;100768.84;129483;1092;22322;-75
2021/06/01 04:53:52;;;;;;;32.93;23.15;;;;;;;12.42;67.88;100767.78;129090;1089;22330;-76
2021/06/01 04:56:24;;;;;;;34.95;26.30;;;;;;;12.63;67.17;100768.06;129522;1090;22321;-75
2021/06/01 04:58:56;;;;;;;28.95;24.00;;;;;;;12.81;66.39;100769.66;129111;1092;22336;-76
2021/06/01 05:01:26;;;;;;;31.47;24.63;;;;;;;12.92;65.55;100771.91;129507;1092;22329;-75
2021/06/01 05:03:55;;;;;;;35.48;26.93;;;;;;;13.06;65.58;100765.05;129058;1093;22869;-75
2021/06/01 05:06:25;;;;;;;38.25;24.73;;;;;;;13.23;64.97;100755.17;129042;1092;24480;-75
2021/06/01 05:08:55;;;;;;;30.45;22.70;;;;;;;13.39;64.50;100765.72;129075;1093;22318;-74
2021/06/01 05:11:24;;;;;;;28.43;20.28;;;;;;;13.60;64.21;100768.57;129109;1090;22335;-76
2021/06/01 05:13:54;;;;;;;22.38;19.30;;;;;;;13.82;63.27;100756.27;129124;1092;22359;-74
2021/06/01 05:16:24;;;;;;;25.75;17.28;;;;;;;13.97;62.32;100753.66;129476;1092;22339;-75
2021/06/01 05:18:54;;;;;;;23.97;16.43;;;;;;;14.09;61.24;100757.55;129067;1093;22765;-74
2021/06/01 05:21:24;;;;;;;21.23;16.60;;;;;;;14.17;60.80;100758.47;129117;1090;22774;-74
2021/06/01 05:23:54;;;;;;;20.45;15.75;;;;;;;14.30;60.26;100758.66;129093;1090;24448;-78
2021/06/01 05:26:23;;;;;;;19.23;15.93;;;;;;;14.44;60.27;100752.52;129140;1092;22338;-76
2021/06/01 05:28:54;;;;;;;22.43;14.90;;;;;;;14.60;59.40;100746.23;129017;1094;22333;-75
2021/06/01 05:32:38;;;;;;;20.35;13.90;;;;;;;14.79;58.94;100748.33;129102;1092;22443;-75
2021/06/01 05:34:22;;;;;;;19.20;15.23;;;;;;;14.98;57.94;100738.92;129108;1090;22356;-76
2021/06/01 05:36:52;;;;;;;17.60;13.93;;;;;;;15.11;57.37;100742.75;129054;1092;22470;-76
2021/06/01 05:39:22;;;;;;;29.10;22.43;;;;;;;15.24;56.95;100753.54;129013;1094;22339;-76
2021/06/01 05:41:52;;;;;;;20.88;15.75;;;;;;;15.38;56.69;100746.52;128995;1092;22360;-75
2021/06/01 05:44:22;;;;;;;16.93;14.53;;;;;;;15.51;56.26;100747.46;129014;1095;22367;-76
2021/06/01 05:46:52;;;;;;;19.53;13.43;;;;;;;15.69;56.03;100752.39;128973;1090;24479;-76
2021/06/01 05:49:22;;;;;;;16.87;13.17;;;;;;;15.92;55.72;100753.98;128992;1095;22364;-76
2021/06/01 05:51:51;;;;;;;21.77;17.48;;;;;;;16.21;55.13;100747.65;128660;1095;23168;-75
2021/06/01 05:54:22;;;;;;;20.03;12.13;;;;;;;16.61;55.37;100751.37;128992;1092;22360;-75
2021/06/01 05:56:53;;;;;;;14.73;11.63;;;;;;;17.16;54.35;100749.58;128668;1094;24246;-76
2021/06/01 05:59:23;;;;;;;17.68;11.78;;;;;;;17.59;52.57;100756.41;128603;1098;22452;-75
2021/06/01 06:01:53;;;;;;;16.03;11.98;;;;;;;17.82;50.78;100759.55;128259;1101;22387;-76
2021/06/01 06:04:23;;;;;;;15.78;10.73;;;;;;;17.82;49.96;100758.72;128234;1098;22376;-77
2021/06/01 06:06:53;;;;;;;14.93;11.68;;;;;;;17.80;50.00;100761.62;128304;1098;22371;-80
2021/06/01 06:09:23;;;;;;;21.83;12.75;;;;;;;17.81;50.03;100757.09;128530;1100;22462;-76
2021/06/01 06:11:53;;;;;;;18.33;11.83;;;;;;;17.90;49.93;100763.06;128662;1095;22380;-84
2021/06/01 06:14:24;;;;;;;16.73;12.33;;;;;;;17.97;49.95;100750.52;128699;1095;22488;-84
2021/06/01 06:17:07;;;;;;;13.03;9.90;;;;;;;18.08;49.97;100749.88;128595;1098;22374;-79
2021/06/01 06:19:43;;;;;;;13.47;10.17;;;;;;;18.28;49.13;100750.67;128825;1092;24151;-76
2021/06/01 06:22:14;;;;;;;13.18;10.63;;;;;;;18.37;48.72;100753.14;129154;1094;22344;-75
2021/06/01 06:24:44;;;;;;;16.13;10.00;;;;;;;18.51;48.52;100750.20;129095;1094;22434;-76
2021/06/01 06:27:13;;;;;;;14.30;9.50;;;;;;;18.66;48.07;100741.95;129046;1094;22661;-76
2021/06/01 06:29:43;;;;;;;12.55;9.35;;;;;;;18.68;47.45;100739.86;129064;1092;22323;-76
2021/06/01 06:32:14;;;;;;;15.20;10.13;;;;;;;18.62;46.84;100730.00;129073;1090;22879;-78
2021/06/01 06:34:45;;;;;;;16.30;11.57;;;;;;;18.61;47.38;100722.20;129158;1092;22339;-76
2021/06/01 06:37:15;;;;;;;;;;;;;;;18.43;46.76;100714.86;129068;1092;24466;-77
2021/06/01 06:39:44;;;;;;;20.83;10.50;;;;;;;18.34;47.64;100720.42;129019;1094;21255;-76
2021/06/01 06:42:16;;;;;;;15.20;10.90;;;;;;;18.33;47.94;100717.97;129080;1094;22319;-76
2021/06/01 06:44:51;;;;;;;15.10;12.13;;;;;;;18.42;48.56;100723.89;129054;1092;22327;-76
2021/06/01 06:50:22;;;;;;;13.80;8.73;;;;;;;18.66;47.56;100712.51;129026;1094;22343;-76
2021/06/01 06:52:52;;;;;;;12.05;9.60;;;;;;;18.75;47.30;100705.08;129163;1094;22342;-77
2021/06/01 06:55:23;;;;;;;11.93;9.40;;;;;;;18.87;46.87;100707.91;129028;1092;25074;-75
2021/06/01 06:57:53;;;;;;;11.83;8.83;;;;;;;18.97;46.66;100702.92;129063;1094;22445;-77
2021/06/01 07:00:24;;;;;;;16.50;10.13;;;;;;;19.08;46.64;100701.41;128629;1095;22364;-79
2021/06/01 07:02:54;;;;;;;10.48;8.53;;;;;;;19.08;46.33;100691.52;128609;1098;22364;-76
2021/06/01 07:05:24;;;;;;;14.57;8.47;;;;;;;19.16;46.37;100693.11;129074;1095;23267;-76
2021/06/01 07:07:55;;;;;;;13.10;8.08;;;;;;;19.33;46.57;100688.89;128705;1095;22361;-77
2021/06/01 07:10:25;;;;;;;11.88;7.33;;;;;;;19.55;46.31;100681.28;128707;1093;22480;-77
2021/06/01 07:13:01;;;;;;;12.37;6.00;;;;;;;20.04;45.90;100676.95;128813;1094;22345;-77
2021/06/01 07:15:41;;;;;;;14.68;11.50;;;;;;;20.58;44.77;100679.88;128804;1094;24228;-77
2021/06/01 07:18:11;;;;;;;13.00;7.33;;;;;;;20.96;43.45;100676.91;128775;1092;22339;-77
2021/06/01 07:20:42;;;;;;;10.00;6.28;;;;;;;21.06;42.23;100673.64;129109;1094;22348;-76
2021/06/01 07:23:11;;;;;;;10.95;7.10;;;;;;;21.01;42.03;100670.84;129060;1092;22321;-76
2021/06/01 07:25:41;;;;;;;15.60;7.35;;;;;;;20.94;42.22;100676.30;128664;1095;22382;-77
2021/06/01 07:28:15;;;;;;;12.35;7.10;;;;;;;20.82;41.56;100672.75;128711;1095;22367;-76
2021/06/01 07:30:45;;;;;;;12.28;7.23;;;;;;;20.68;41.75;100674.80;128661;1095;22369;-77
2021/06/01 07:33:15;;;;;;;11.95;8.23;;;;;;;20.58;42.34;100675.33;128640;1095;22377;-77
2021/06/01 07:35:45;;;;;;;11.10;7.08;;;;;;;20.52;42.45;100676.23;128620;1098;22365;-76
2021/06/01 07:38:15;;;;;;;11.10;6.90;;;;;;;20.41;42.35;100672.41;128256;1100;22388;-76
2021/06/01 07:40:45;;;;;;;11.18;7.98;;;;;;;20.29;42.53;100681.42;128253;1101;22607;-77
2021/06/01 07:43:15;;;;;;;8.40;7.60;;;;;;;20.19;42.72;100674.74;128374;1098;22387;-77
2021/06/01 07:45:45;;;;;;;9.80;7.33;;;;;;;20.11;43.21;100675.02;128290;1101;22362;-76
2021/06/01 07:48:15;;;;;;;12.20;6.48;;;;;;;20.01;43.12;100669.35;128418;1098;22368;-78
2021/06/01 07:50:51;;;;;;;9.20;6.25;;;;;;;19.91;43.34;100672.54;128558;1098;22342;-76
2021/06/01 07:53:21;;;;;;;7.50;6.48;;;;;;;19.84;43.19;100665.61;128580;1098;22535;-74
2021/06/01 07:55:52;;;;;;;8.63;5.70;;;;;;;19.78;43.71;100659.27;128244;1098;23405;-74
2021/06/01 07:58:23;;;;;;;8.45;5.00;;;;;;;19.76;43.46;100661.37;128665;1097;24498;-73
2021/06/01 08:00:53;;;;;;;10.08;5.70;;;;;;;19.74;43.29;100660.75;128310;1098;22887;-73
2021/06/01 08:03:23;;;;;;;10.43;5.73;;;;;;;19.72;42.73;100655.59;128260;1095;22455;-73
2021/06/01 08:05:53;;;;;;;11.43;6.48;;;;;;;19.75;43.06;100651.66;128589;1098;22370;-73
2021/06/01 08:08:25;;;;;;;13.65;6.00;;;;;;;19.75;42.75;100657.02;128567;1097;22414;-73
2021/06/01 08:10:55;;;;;;;8.70;5.48;;;;;;;19.77;42.50;100651.45;128660;1095;22352;-72
2021/06/01 08:13:27;;;;;;;7.55;5.68;;;;;;;19.80;41.98;100651.02;128660;1094;24345;-72
2021/06/01 08:15:59;;;;;;;11.28;6.25;;;;;;;19.79;41.80;100655.53;129008;1090;24451;-73
2021/06/01 08:18:37;;;;;;;10.05;5.23;;;;;;;19.75;41.63;100649.80;129103;1090;22238;-73
2021/06/01 08:23:36;;;;;;;5.18;4.15;;;;;;;19.97;41.84;100646.71;129022;1094;22381;-73
2021/06/01 08:26:06;;;;;;;11.28;4.55;;;;;;;20.08;41.00;100639.78;128988;1095;22744;-73
2021/06/01 08:28:36;;;;;;;9.85;4.58;;;;;;;20.27;41.46;100640.61;129025;1093;22342;-73
2021/06/01 08:31:06;;;;;;;7.55;4.98;;;;;;;20.50;40.90;100642.59;129013;1092;22333;-73
2021/06/01 08:33:36;;;;;;;5.70;4.55;;;;;;;20.66;40.22;100639.33;128997;1091;24563;-73
2021/06/01 08:36:08;;;;;;;7.58;4.60;;;;;;;20.92;40.54;100632.73;129149;1091;22330;-73
2021/06/01 08:38:39;;;;;;;6.20;4.08;;;;;;;21.18;39.95;100631.52;129283;1091;24214;-73
2021/06/01 08:41:13;;;;;;;8.00;4.40;;;;;;;21.39;39.42;100622.11;129382;1092;22338;-73
2021/06/01 08:43:44;;;;;;;6.70;3.68;;;;;;;21.68;38.41;100630.31;129041;1090;23077;-73
2021/06/01 08:46:15;;;;;;;6.50;3.63;;;;;;;21.94;38.15;100631.70;129120;1092;22324;-73
2021/06/01 08:48:45;;;;;;;6.97;4.03;;;;;;;22.10;37.93;100630.97;129126;1092;22495;-73
2021/06/01 08:51:20;;;;;;;6.00;3.48;;;;;;;22.06;36.88;100640.58;129028;1090;22356;-72
2021/06/01 08:53:51;;;;;;;5.10;3.03;;;;;;;22.02;36.84;100642.89;129013;1091;24224;-73
2021/06/01 08:56:23;;;;;;;11.33;3.63;;;;;;;22.06;36.94;100637.89;129091;1090;24224;-74
2021/06/01 08:58:54;;;;;;;4.33;2.60;;;;;;;22.13;36.71;100638.57;129210;1092;23228;-73
2021/06/01 09:01:24;;;;;;;5.28;2.70;;;;;;;22.20;36.37;100625.83;129484;1092;22343;-74
2021/06/01 09:03:58;;;;;;;8.93;4.33;;;;;;;22.23;36.43;100628.05;129093;1092;22327;-73
2021/06/01 09:06:53;;;;;;;6.88;3.73;;;;;;;22.26;36.65;100632.96;129095;1092;23045;-73
2021/06/01 09:23:06;;;;;;;10.43;4.75;;;;;;;21.66;36.89;100653.91;128764;1095;22366;-73
2021/06/01 09:28:09;;;;;;;14.10;12.13;;;;;;;21.42;37.03;100653.08;128992;1092;24167;-73
2021/06/01 09:31:01;;;;;;;11.13;7.78;;;;;;;21.27;37.66;100650.83;128992;1092;22351;-73
2021/06/01 09:33:32;;;;;;;9.73;8.73;;;;;;;21.15;37.57;100656.16;128773;1095;22334;-74
2021/06/01 09:36:04;;;;;;;14.88;6.88;;;;;;;21.11;37.80;100653.11;128690;1095;22366;-75
2021/06/01 09:38:43;;;;;;;9.25;5.63;;;;;;;21.06;38.10;100654.84;129102;1092;22409;-74
2021/06/01 09:41:25;;;;;;;7.30;5.63;;;;;;;20.97;37.87;100657.05;129080;1091;22338;-73
2021/06/01 09:44:00;;;;;;;9.10;6.03;;;;;;;20.85;38.19;100657.00;129506;1092;22329;-73
2021/06/01 09:46:33;;;;;;;7.13;5.93;;;;;;;20.81;38.66;100652.33;129199;1092;22351;-74
2021/06/01 09:49:32;;;;;;;8.18;6.58;;;;;;;20.72;39.40;100648.31;129087;1092;22318;-74
2021/06/01 09:52:08;;;;;;;9.63;6.18;;;;;;;20.56;39.79;100647.91;128996;1095;22440;-75
2021/06/01 09:54:50;;;;;;;6.90;5.25;;;;;;;20.43;40.59;100653.41;128596;1094;22392;-73
2021/06/01 09:57:24;;;;;;;7.30;5.53;;;;;;;20.30;40.81;100640.98;128544;1098;22370;-75
2021/06/01 10:00:16;;;;;;;7.58;5.43;;;;;;;20.21;41.32;100647.68;128683;1095;22374;-74
2021/06/01 10:02:57;;;;;;;7.05;6.35;;;;;;;20.08;42.33;100645.96;128701;1096;22355;-75
2021/06/01 10:05:33;;;;;;;8.60;5.60;;;;;;;20.00;42.49;100645.45;128570;1095;22351;-75
2021/06/01 10:08:16;;;;;;;5.70;5.08;;;;;;;19.87;42.55;100649.09;128591;1095;22872;-74
2021/06/01 10:10:59;;;;;;;7.35;5.60;;;;;;;19.75;43.06;100647.11;128595;1098;22791;-75
2021/06/01 10:13:32;;;;;;;8.65;5.43;;;;;;;19.62;43.07;100649.89;128582;1098;22344;-74
2021/06/01 10:16:06;;;;;;;12.18;5.53;;;;;;;19.48;43.96;100651.05;128583;1094;22373;-74
2021/06/01 10:18:40;;;;;;;11.25;5.65;;;;;;;19.36;44.54;100637.56;128649;1095;22343;-74
2021/06/01 10:21:19;;;;;;;8.63;6.45;;;;;;;19.26;45.47;100645.27;128748;1095;22331;-74
2021/06/01 10:23:52;;;;;;;8.00;6.15;;;;;;;19.20;46.44;100638.91;128597;1098;22361;-74
2021/06/01 10:26:24;;;;;;;7.13;5.75;;;;;;;19.19;47.21;100633.76;128600;1095;24482;-74
2021/06/01 10:28:55;;;;;;;8.18;6.55;;;;;;;19.15;47.67;100636.05;128794;1092;22338;-73
2021/06/01 10:31:46;;;;;;;10.68;6.53;;;;;;;19.06;48.13;100634.70;128923;1094;24246;-73
2021/06/01 10:34:18;;;;;;;9.40;6.58;;;;;;;19.04;48.72;100637.58;129081;1095;22388;-75
2021/06/01 10:42:39;;;;;;;8.00;5.35;;;;;;;18.98;48.57;100632.27;128675;1095;22321;-73
2021/06/01 10:50:41;;;;;;;6.03;4.13;;;;;;;19.00;48.34;100630.20;129019;1090;24154;-74
2021/06/01 10:53:27;;;;;;;6.48;4.28;;;;;;;19.08;48.28;100640.64;129156;1091;22337;-73
2021/06/01 10:56:05;;;;;;;6.18;3.78;;;;;;;19.10;47.89;100635.90;128996;1094;22348;-74
2021/06/01 10:59:03;;;;;;;6.80;4.70;;;;;;;19.07;47.45;100624.80;128696;1093;24466;-73
2021/06/01 11:01:56;;;;;;;10.33;5.70;;;;;;;18.90;47.36;100628.00;128355;1098;22399;-72
2021/06/01 11:04:29;;;;;;;12.38;6.43;;;;;;;18.84;47.56;100625.36;128585;1095;22328;-75
2021/06/01 11:07:00;;;;;;;12.15;7.78;;;;;;;18.84;48.14;100631.53;128349;1098;22459;-74
2021/06/01 11:09:54;;;;;;;15.13;9.48;;;;;;;18.83;47.92;100623.70;128550;1098;22348;-74
2021/06/01 11:12:45;;;;;;;22.83;18.08;;;;;;;18.80;48.50;100623.12;127978;1101;22343;-73
2021/06/01 11:15:23;;;;;;;11.98;8.83;;;;;;;18.78;48.76;100621.69;127924;1104;22512;-73
2021/06/01 11:17:53;;;;;;;6.98;6.28;;;;;;;18.75;48.78;100625.60;128013;1099;22352;-74
2021/06/01 11:23:27;;;;;;;9.38;6.13;;;;;;;18.68;48.61;100634.68;127894;1101;22365;-75
2021/06/01 11:34:38;;;;;;;8.43;4.87;;;;;;;18.40;51.04;100643.88;127301;1108;22410;-74
2021/06/01 11:37:21;;;;;;;5.98;4.80;;;;;;;18.40;51.18;100641.20;127535;1108;22448;-74
2021/06/01 11:40:11;;;;;;;9.78;6.75;;;;;;;18.39;51.75;100638.72;127825;1104;22400;-74
2021/06/01 11:42:50;;;;;;;8.75;7.38;;;;;;;18.39;51.98;100644.88;128176;1101;22356;-75
2021/06/01 11:45:22;;;;;;;9.88;6.95;;;;;;;18.39;52.28;100638.72;128041;1101;22383;-74
2021/06/01 11:48:06;;;;;;;15.50;9.45;;;;;;;18.35;52.24;100639.14;128241;1098;24598;-76
2021/06/01 11:53:25;;;;;;;12.10;7.30;;;;;;;18.29;53.61;100644.52;128901;1091;22774;-75
2021/06/01 11:56:02;;;;;;;8.00;6.30;;;;;;;18.26;53.60;100643.11;129018;1091;22339;-76
2021/06/01 12:04:13;;;;;;;6.93;5.00;;;;;;;18.09;53.46;100645.42;129417;1092;23075;-74
2021/06/01 12:20:52;;;;;;;15.30;10.60;;;;;;;17.53;54.77;100632.53;129084;1090;22350;-75
2021/06/01 12:23:29;;;;;;;10.28;9.18;;;;;;;17.48;55.45;100636.84;129148;1092;22317;-73
2021/06/01 12:32:28;;;;;;;8.45;7.58;;;;;;;16.91;57.38;100631.05;129063;1091;24466;-75
2021/06/01 12:43:56;;;;;;;11.53;9.53;;;;;;;16.75;58.96;100610.08;129253;1094;22324;-75
2021/06/01 12:47:44;;;;;;;9.35;8.35;;;;;;;16.79;59.06;100616.64;129444;1094;22338;-75
2021/06/01 13:40:47;;;;;;;9.37;6.87;;;;;;;17.26;56.39;100578.31;128774;1095;21274;-76
2021/06/01 13:46:21;;;;;;;8.10;6.68;;;;;;;17.28;56.23;100573.57;128756;1093;22426;-74
2021/06/01 13:56:48;;;;;;;8.20;7.03;;;;;;;17.80;55.99;100569.22;129084;1092;22320;-78
2021/06/01 15:22:34;;;;;;;11.83;7.83;;;;;;;17.68;56.68;100536.12;128652;1098;22440;-78
2021/06/01 15:31:41;;;;;;;8.97;5.97;;;;;;;17.21;57.03;100540.72;128608;1098;22331;-79
2021/06/01 15:51:39;;;;;;;7.95;6.48;;;;;;;16.64;58.24;100550.92;128532;1098;22401;-79
2021/06/01 16:33:44;;;;;;;11.70;8.25;;;;;;;16.14;60.72;100534.39;129090;1094;22400;-77
2021/06/01 16:42:02;;;;;;;9.83;6.78;;;;;;;16.02;60.78;100527.97;129045;1091;24239;-76